This is the latest recevied weather packets stored in our database for station/object WE0DX-1. If no packets are shown the sender has not sent any weather packets the latest 10 day(s).
| Time | Temp. | Humidity | Pressure | Rain* | Wind** | Luminosity | Snow |
|---|---|---|---|---|---|---|---|
| 1777955202 | 20.56° C | 38% | 1004 hPa | 0 mm | - | 0 W/m² | - |
| 1777954900 | 21.11° C | 37% | 1004 hPa | 0 mm | - | 0 W/m² | - |
| 1777954596 | 21.11° C | 37% | 1004.1 hPa | 0 mm | - | 0 W/m² | - |
| 1777954294 | 21.11° C | 37% | 1003.9 hPa | 0 mm | - | 0 W/m² | - |
| 1777953990 | 21.11° C | 37% | 1004.2 hPa | 0 mm | - | 0 W/m² | - |
| 1777953688 | 21.67° C | 37% | 1003.6 hPa | 0 mm | - | 0 W/m² | - |
| 1777953384 | 21.67° C | 38% | 1003.8 hPa | 0 mm | - | 0 W/m² | - |
| 1777953080 | 21.67° C | 43% | 1003.6 hPa | 0 mm | - | 0 W/m² | - |
| 1777952777 | 21.67° C | 44% | 1003.6 hPa | 0 mm | - | 0 W/m² | - |
| 1777952474 | 21.67° C | 49% | 1003.6 hPa | 0 mm | - | 0 W/m² | - |
| 1777952171 | 21.67° C | 51% | 1003.5 hPa | 0 mm | - | 0 W/m² | - |
| 1777951869 | 21.67° C | 53% | 1003.4 hPa | 0 mm | - | 0 W/m² | - |
| 1777951567 | 21.11° C | 56% | 1003.5 hPa | 0 mm | - | 0 W/m² | - |
| 1777951263 | 20.56° C | 60% | 1003.4 hPa | 0 mm | - | 0 W/m² | - |
| 1777950961 | 22.22° C | 58% | 1002.9 hPa | 0 mm | - | 0 W/m² | - |
| 1777950656 | 21.67° C | 58% | 1002.6 hPa | 0 mm | - | 0 W/m² | - |
| 1777950354 | 21.67° C | 58% | 1002.6 hPa | 0 mm | - | 0 W/m² | - |
| 1777950049 | 22.22° C | 57% | 1002.5 hPa | 0 mm | - | 0 W/m² | - |
| 1777949745 | 22.22° C | 57% | 1002.4 hPa | 0 mm | - | 0 W/m² | - |
| 1777949445 | 22.22° C | 56% | 1002.6 hPa | 0 mm | - | 0 W/m² | - |
| 1777949141 | 22.22° C | 56% | 1002.4 hPa | 0 mm | - | 0 W/m² | - |
| 1777948838 | 22.22° C | 57% | 1002.6 hPa | 0 mm | - | 0 W/m² | - |
| 1777948535 | 22.22° C | 56% | 1002.4 hPa | 0 mm | - | 0 W/m² | - |
| 1777948233 | 22.22° C | 56% | 1002.6 hPa | 0 mm | - | 0 W/m² | - |
| 1777947930 | 22.78° C | 56% | 1002.2 hPa | 0 mm | - | 0 W/m² | - |
* Rain latest hour (hover to see other rain measurements)
** Current wind speed in m/s (hover to see current wind gust speed)